ESNK

Kramfors Sollefteå Airport

Kramfors / Sollefteå, Sweden
METAR ESNK 230950Z AUTO 35004KT 6000 -SN OVC003/// M10/M13 Q1033
Observed Flight Rules
Feb-23 @ 09:50 UTC (38 minutes ago) Instrument Flight Rules
Wind Visibility Clouds Conditions
350° at 4 knots 6,003 meters
  • Overcast at 300' AGL
  • Light Snow
Temperatures Readings
Current -10°C / 14°F
Dewpoint -13°C / 9°F
Humidity 79%
Altimeter 30.5" Hg
Pressure 1033 hPa
Elevation 19
METAR ESNK 230950Z AUTO 35004KT 6000 -SN OVC003/// M10/M13 Q1033
Observed Flight Rules
Feb-23 @ 09:50 UTC
(38 minutes ago)
LIFR
Wind Visibility
350° at 4 knots 6,003 meters
Clouds
  • Overcast at 300' AGL
Conditions
  • Light Snow
Temperature Dewpoint
-10°C / 14°F -13°C / 9°F
Humidity Altimeter Pressure
79% 30.5" Hg 1033 hPa